Time;durP1;ratioP1;P1;durP2;ratioP2;P2;SDS_P1;SDS_P2;PMS_P1;PMS_P2;Temp;Humidity;BMP_temperature;BMP_pressure;BME280_temperature;BME280_humidity;BME280_pressure;Samples;Min_cycle;Max_cycle;Signal;HPM_P1;HPM_P2
2022/05/16 00:00:24;;;;;;;0.60;0.50;;;14.80;99.90;;;;;;4987568;28;20184;-74
2022/05/16 00:02:52;;;;;;;5.18;0.63;;;14.80;99.90;;;;;;4986350;28;20021;-74
2022/05/16 00:05:20;;;;;;;0.60;0.60;;;14.90;99.90;;;;;;4986669;28;20445;-73
2022/05/16 00:07:48;;;;;;;0.80;0.70;;;14.90;99.90;;;;;;4988070;28;20030;-72
2022/05/16 00:10:16;;;;;;;1.63;0.50;;;15.00;99.90;;;;;;4986661;28;20546;-72
2022/05/16 00:12:44;;;;;;;1.05;0.60;;;15.00;99.90;;;;;;4992356;28;20026;-71
2022/05/16 00:15:14;;;;;;;0.88;0.65;;;15.10;99.90;;;;;;4995012;28;20394;-71
2022/05/16 00:17:41;;;;;;;0.40;0.40;;;15.20;99.90;;;;;;4994845;28;20041;-70
2022/05/16 00:20:10;;;;;;;0.90;0.77;;;15.20;99.90;;;;;;4994783;28;20023;-74
2022/05/16 00:22:38;;;;;;;3.03;0.60;;;15.30;99.90;;;;;;4994872;28;20061;-70
2022/05/16 00:25:08;;;;;;;1.63;0.60;;;15.30;99.90;;;;;;4994654;28;20027;-72
2022/05/16 00:27:35;;;;;;;1.00;0.50;;;15.40;99.90;;;;;;4994852;28;20027;-74
2022/05/16 00:30:12;;;;;;;1.25;0.55;;;15.40;99.90;;;;;;4994635;28;20019;-71
2022/05/16 00:32:39;;;;;;;0.60;0.40;;;15.50;99.90;;;;;;4994449;28;20030;-71
2022/05/16 00:35:08;;;;;;;0.50;0.40;;;15.50;99.90;;;;;;4994262;28;20022;-74
2022/05/16 00:37:36;;;;;;;1.27;0.60;;;15.60;99.90;;;;;;4994513;28;20403;-74
2022/05/16 00:40:05;;;;;;;0.65;0.40;;;15.60;99.90;;;;;;4994255;28;20019;-70
2022/05/16 00:42:36;;;;;;;2.90;0.93;;;15.70;99.90;;;;;;4978324;28;20050;-73
2022/05/16 00:45:04;;;;;;;3.55;0.60;;;15.80;99.90;;;;;;4985203;28;20521;-73
2022/05/16 00:47:32;;;;;;;1.38;0.50;;;15.80;99.90;;;;;;4985619;28;20038;-74
2022/05/16 00:50:02;;;;;;;4.35;0.40;;;15.90;99.90;;;;;;4984384;28;20072;-71
2022/05/16 00:52:40;;;;;;;1.05;0.50;;;16.00;99.90;;;;;;4988537;28;20029;-71
2022/05/16 00:55:12;;;;;;;2.15;0.88;;;16.00;99.90;;;;;;4993496;28;20399;-74
2022/05/16 00:57:55;;;;;;;5.43;1.17;;;16.10;99.90;;;;;;4995445;28;20018;-73
2022/05/16 01:00:33;;;;;;;1.08;0.60;;;16.10;99.90;;;;;;4994315;28;20161;-71
2022/05/16 01:05:59;;;;;;;0.50;0.40;;;16.20;99.90;;;;;;4994015;28;20024;-70
2022/05/16 01:08:30;;;;;;;0.70;0.43;;;16.20;99.90;;;;;;4994869;28;20026;-70
2022/05/16 01:11:06;;;;;;;0.73;0.50;;;16.30;99.90;;;;;;4993750;28;20042;-75
2022/05/16 01:13:33;;;;;;;1.00;0.50;;;16.30;99.90;;;;;;4995149;28;20402;-74
2022/05/16 01:16:02;;;;;;;0.57;0.47;;;16.40;99.90;;;;;;4995287;28;20027;-74
2022/05/16 01:18:30;;;;;;;0.50;0.50;;;16.40;99.90;;;;;;4992885;28;20423;-74
2022/05/16 01:21:06;;;;;;;1.85;0.50;;;16.50;99.90;;;;;;4992874;28;20051;-75
2022/05/16 01:23:41;;;;;;;0.68;0.40;;;16.50;99.90;;;;;;4994079;28;20487;-74
2022/05/16 01:26:16;;;;;;;6.22;0.43;;;16.50;99.90;;;;;;4995132;28;20031;-73
2022/05/16 01:28:44;;;;;;;1.02;0.40;;;16.50;99.90;;;;;;4991678;28;20069;-74
2022/05/16 01:31:12;;;;;;;1.58;0.43;;;16.60;99.90;;;;;;4995145;28;20037;-75
2022/05/16 01:33:40;;;;;;;0.40;0.32;;;16.60;99.90;;;;;;4991048;28;20459;-74
2022/05/16 01:36:07;;;;;;;0.40;0.40;;;16.60;99.90;;;;;;4992826;28;20472;-74
2022/05/16 01:38:35;;;;;;;0.30;0.30;;;16.70;99.90;;;;;;4992654;28;20084;-74
2022/05/16 01:41:04;;;;;;;0.65;0.65;;;16.70;99.90;;;;;;4993308;28;20019;-74
2022/05/16 01:43:35;;;;;;;0.50;0.40;;;16.80;99.90;;;;;;4992644;28;20041;-69
2022/05/16 01:46:04;;;;;;;1.42;0.40;;;16.90;99.90;;;;;;4993303;28;20101;-70
2022/05/16 01:48:32;;;;;;;1.25;0.50;;;16.90;99.90;;;;;;4993912;28;20488;-69
2022/05/16 01:51:05;;;;;;;1.23;0.60;;;16.90;99.90;;;;;;4995317;28;20131;-70
2022/05/16 01:53:33;;;;;;;0.47;0.45;;;16.90;99.90;;;;;;4995976;28;20030;-69
2022/05/16 01:56:01;;;;;;;0.52;0.40;;;17.00;99.90;;;;;;4995179;28;20069;-70
2022/05/16 01:58:28;;;;;;;1.20;0.30;;;17.00;99.90;;;;;;4995534;28;20030;-69
2022/05/16 02:00:56;;;;;;;0.40;0.38;;;17.10;99.90;;;;;;4993978;28;20014;-70
2022/05/16 02:03:24;;;;;;;0.30;0.30;;;17.10;99.90;;;;;;4993599;28;20038;-70
2022/05/16 02:05:51;;;;;;;2.70;0.40;;;17.20;99.90;;;;;;4983308;28;20057;-70
2022/05/16 02:08:19;;;;;;;0.30;0.30;;;17.10;99.90;;;;;;4983779;28;20084;-70
2022/05/16 02:10:47;;;;;;;0.88;0.50;;;17.20;99.90;;;;;;4985403;28;20022;-70
2022/05/16 02:13:15;;;;;;;1.88;0.30;;;17.10;99.90;;;;;;4981038;28;20026;-71
2022/05/16 02:15:44;;;;;;;0.93;0.40;;;17.20;99.90;;;;;;4985448;28;20022;-71
2022/05/16 02:18:12;;;;;;;0.95;0.68;;;17.30;99.90;;;;;;4987205;28;20023;-71
2022/05/16 02:20:40;;;;;;;0.75;0.38;;;17.30;99.90;;;;;;4994676;28;20026;-70
2022/05/16 02:25:55;;;;;;;0.50;0.20;;;17.40;99.90;;;;;;4994963;28;20447;-73
2022/05/16 02:28:23;;;;;;;1.25;0.40;;;17.50;99.90;;;;;;4994501;28;20038;-74
2022/05/16 02:30:52;;;;;;;2.05;0.35;;;17.50;99.90;;;;;;4994373;28;20025;-73
2022/05/16 02:33:20;;;;;;;0.40;0.38;;;17.50;99.90;;;;;;4994288;28;20031;-75
2022/05/16 02:35:47;;;;;;;0.30;0.30;;;17.60;99.90;;;;;;4994418;28;20483;-75
2022/05/16 02:38:17;;;;;;;0.30;0.30;;;17.70;99.90;;;;;;4994322;28;20114;-74
2022/05/16 02:40:44;;;;;;;0.85;0.45;;;17.70;99.90;;;;;;4994373;28;20050;-71
2022/05/16 02:43:12;;;;;;;1.02;0.30;;;17.70;99.90;;;;;;4994182;28;20068;-71
2022/05/16 02:45:39;;;;;;;0.95;0.40;;;17.60;99.90;;;;;;4993867;28;20037;-71
2022/05/16 02:48:07;;;;;;;1.02;0.35;;;17.70;99.90;;;;;;4994082;28;20061;-71
2022/05/16 02:50:34;;;;;;;0.65;0.40;;;17.70;99.90;;;;;;4993832;28;20050;-71
2022/05/16 02:53:02;;;;;;;0.52;0.50;;;17.80;99.90;;;;;;4993956;28;20386;-70
2022/05/16 02:55:31;;;;;;;0.90;0.40;;;17.80;99.90;;;;;;4993089;28;20022;-71
2022/05/16 02:57:59;;;;;;;0.68;0.40;;;17.90;99.90;;;;;;4993825;28;20497;-70
2022/05/16 03:00:26;;;;;;;0.90;0.43;;;17.90;99.90;;;;;;4993891;28;20034;-70
2022/05/16 03:02:53;;;;;;;0.77;0.40;;;18.00;99.90;;;;;;4993729;28;20044;-71
2022/05/16 03:05:21;;;;;;;0.47;0.40;;;18.00;99.90;;;;;;4993313;28;20471;-71
2022/05/16 03:07:48;;;;;;;1.30;0.40;;;18.00;99.90;;;;;;4993812;28;20449;-71
2022/05/16 03:10:16;;;;;;;0.38;0.28;;;17.90;99.90;;;;;;4993374;28;20054;-70
2022/05/16 03:12:45;;;;;;;0.55;0.40;;;18.00;99.90;;;;;;4993243;28;20057;-71
2022/05/16 03:15:15;;;;;;;3.55;0.70;;;18.00;99.90;;;;;;4993343;28;20538;-71
2022/05/16 03:17:43;;;;;;;0.32;0.32;;;18.00;99.90;;;;;;4993101;28;20069;-70
2022/05/16 03:20:15;;;;;;;1.45;0.52;;;18.10;99.90;;;;;;4993420;28;20447;-70
2022/05/16 03:22:43;;;;;;;1.15;0.68;;;18.20;99.90;;;;;;4992918;28;20478;-70
2022/05/16 03:25:11;;;;;;;1.55;0.50;;;18.20;99.90;;;;;;4992811;28;20034;-71
2022/05/16 03:27:39;;;;;;;0.30;0.30;;;18.10;99.90;;;;;;4993174;28;20464;-70
2022/05/16 03:30:09;;;;;;;5.57;0.68;;;18.20;99.90;;;;;;4993053;28;20464;-70
2022/05/16 03:32:37;;;;;;;0.43;0.30;;;18.20;99.90;;;;;;4993176;28;20030;-70
2022/05/16 03:35:06;;;;;;;0.35;0.32;;;18.30;99.90;;;;;;4993004;28;20049;-71
2022/05/16 03:37:33;;;;;;;0.55;0.40;;;18.30;99.90;;;;;;4993174;28;20029;-71
2022/05/16 03:42:46;;;;;;;0.57;0.40;;;18.40;99.90;;;;;;4993750;28;20059;-71
2022/05/16 03:45:13;;;;;;;0.40;0.28;;;18.40;99.90;;;;;;4993148;28;20483;-70
2022/05/16 03:47:41;;;;;;;0.40;0.30;;;18.40;99.90;;;;;;4993601;28;20026;-70
2022/05/16 03:50:09;;;;;;;0.70;0.40;;;18.40;99.90;;;;;;4993256;28;20047;-70
2022/05/16 03:52:38;;;;;;;0.77;0.40;;;18.40;99.90;;;;;;4993511;28;20380;-70
2022/05/16 03:55:07;;;;;;;0.50;0.45;;;18.40;99.90;;;;;;4985039;28;20378;-70
2022/05/16 03:57:34;;;;;;;0.47;0.40;;;18.40;99.90;;;;;;4984206;28;20015;-71
2022/05/16 04:00:02;;;;;;;0.38;0.30;;;18.40;99.90;;;;;;4981432;28;20026;-71
2022/05/16 04:02:29;;;;;;;1.65;0.57;;;18.40;99.90;;;;;;4976320;28;20038;-71
2022/05/16 04:04:57;;;;;;;0.55;0.40;;;18.40;99.90;;;;;;4978694;28;20090;-70
2022/05/16 04:07:24;;;;;;;0.68;0.40;;;18.40;99.90;;;;;;4987017;28;20018;-70
2022/05/16 04:09:52;;;;;;;0.43;0.40;;;18.40;99.90;;;;;;4987212;28;20022;-70
2022/05/16 04:12:19;;;;;;;0.73;0.50;;;18.40;99.90;;;;;;4985778;28;20015;-70
2022/05/16 04:14:46;;;;;;;1.10;0.40;;;18.40;99.90;;;;;;4991310;28;20026;-71
2022/05/16 04:17:14;;;;;;;0.75;0.45;;;18.30;99.90;;;;;;4996918;28;20483;-70
2022/05/16 04:19:42;;;;;;;0.40;0.40;;;18.30;99.90;;;;;;4996852;28;20386;-70
2022/05/16 04:22:09;;;;;;;1.23;0.73;;;18.40;99.90;;;;;;4997301;28;20442;-71
2022/05/16 04:24:36;;;;;;;0.30;0.25;;;18.30;99.90;;;;;;4996825;28;20026;-70
2022/05/16 04:27:04;;;;;;;0.60;0.43;;;18.30;99.90;;;;;;4996462;28;20505;-70
2022/05/16 04:29:32;;;;;;;0.73;0.40;;;18.30;99.90;;;;;;4996650;28;20038;-70
2022/05/16 04:31:59;;;;;;;0.30;0.30;;;18.30;99.90;;;;;;4996405;28;20026;-70
2022/05/16 04:34:26;;;;;;;0.30;0.30;;;18.30;99.90;;;;;;4996550;28;20077;-69
2022/05/16 04:36:54;;;;;;;1.58;0.40;;;18.30;99.90;;;;;;4996450;28;20058;-70
2022/05/16 04:39:21;;;;;;;0.40;0.20;;;18.20;99.90;;;;;;4990570;28;20105;-70
2022/05/16 04:44:38;;;;;;;2.65;0.52;;;18.20;99.90;;;;;;4996294;28;20076;-70
2022/05/16 04:47:07;;;;;;;0.60;0.50;;;18.20;99.90;;;;;;4996141;28;20030;-70
2022/05/16 04:49:35;;;;;;;2.05;0.40;;;18.20;99.90;;;;;;4995875;28;20086;-70
2022/05/16 04:52:05;;;;;;;2.50;0.30;;;18.20;99.90;;;;;;4996091;28;20030;-69
2022/05/16 04:54:33;;;;;;;1.27;0.30;;;18.20;99.90;;;;;;4995797;28;20518;-70
2022/05/16 04:57:01;;;;;;;1.25;0.60;;;18.30;99.90;;;;;;4989341;28;20062;-69
2022/05/16 04:59:28;;;;;;;0.45;0.40;;;18.30;99.90;;;;;;4984168;28;20098;-70
2022/05/16 05:01:55;;;;;;;0.50;0.30;;;18.30;99.90;;;;;;4986033;28;20153;-70
2022/05/16 05:04:23;;;;;;;4.80;0.30;;;18.30;99.90;;;;;;4987851;28;20053;-69
2022/05/16 05:06:50;;;;;;;0.30;0.25;;;18.30;99.90;;;;;;4987619;28;20030;-70
2022/05/16 05:09:18;;;;;;;1.55;0.57;;;18.30;99.90;;;;;;4983173;28;20033;-70
2022/05/16 05:14:35;;;;;;;0.90;0.32;;;18.30;99.90;;;;;;4984407;28;20069;-70
2022/05/16 05:17:11;;;;;;;0.55;0.40;;;18.30;99.90;;;;;;4984206;28;20027;-72
2022/05/16 05:19:42;;;;;;;0.40;0.40;;;18.30;99.90;;;;;;4985184;28;20523;-70
2022/05/16 05:22:10;;;;;;;0.63;0.30;;;18.20;99.90;;;;;;4984116;28;20130;-70
2022/05/16 05:24:37;;;;;;;0.65;0.30;;;18.20;99.90;;;;;;4983469;28;20567;-70
2022/05/16 05:27:05;;;;;;;5.55;0.47;;;18.30;99.90;;;;;;4984400;28;20029;-70
2022/05/16 05:29:32;;;;;;;0.70;0.57;;;18.20;99.90;;;;;;4993430;28;20026;-70
2022/05/16 05:31:59;;;;;;;0.68;0.40;;;18.20;99.90;;;;;;4991870;28;20053;-70
2022/05/16 05:34:27;;;;;;;0.73;0.40;;;18.20;99.90;;;;;;4991869;28;20383;-71
2022/05/16 05:36:54;;;;;;;0.95;0.55;;;18.20;99.90;;;;;;4994530;28;20091;-70
2022/05/16 05:39:22;;;;;;;0.40;0.40;;;18.20;99.90;;;;;;4993705;28;20057;-70
2022/05/16 05:41:49;;;;;;;1.88;0.60;;;18.30;99.90;;;;;;4992651;28;20499;-70
2022/05/16 05:44:16;;;;;;;2.05;0.50;;;18.30;99.90;;;;;;4994427;28;20075;-70
2022/05/16 05:46:44;;;;;;;0.63;0.47;;;18.30;99.90;;;;;;4994485;28;20056;-70
2022/05/16 05:49:12;;;;;;;1.83;0.63;;;18.30;99.90;;;;;;4991255;28;20399;-71
2022/05/16 05:51:39;;;;;;;0.47;0.30;;;18.30;99.90;;;;;;4984795;28;20027;-70
2022/05/16 05:54:08;;;;;;;1.23;0.70;;;18.30;99.90;;;;;;4984465;28;20018;-70
2022/05/16 05:56:37;;;;;;;0.40;0.38;;;18.30;99.90;;;;;;4984046;28;20015;-70
2022/05/16 05:59:05;;;;;;;1.17;0.40;;;18.20;99.90;;;;;;4990566;28;20034;-70
2022/05/16 06:01:32;;;;;;;0.45;0.40;;;18.20;99.90;;;;;;4991045;28;20121;-70
2022/05/16 06:03:59;;;;;;;0.68;0.45;;;18.20;99.90;;;;;;4992336;28;20029;-71
2022/05/16 06:06:28;;;;;;;1.25;0.47;;;18.10;99.90;;;;;;4984007;28;20099;-70
2022/05/16 06:08:55;;;;;;;1.20;0.47;;;18.10;99.90;;;;;;4992131;28;20434;-70
2022/05/16 06:11:27;;;;;;;0.90;0.47;;;18.10;99.90;;;;;;4992239;28;20374;-70
2022/05/16 06:13:58;;;;;;;0.80;0.40;;;18.10;99.90;;;;;;4993092;28;20018;-70
2022/05/16 06:16:25;;;;;;;2.15;0.30;;;18.10;99.90;;;;;;4991745;28;20018;-70
2022/05/16 06:18:52;;;;;;;1.58;0.40;;;18.10;99.90;;;;;;4991001;28;20045;-70
2022/05/16 06:21:20;;;;;;;0.30;0.30;;;18.10;99.90;;;;;;4984168;28;20070;-71
2022/05/16 06:23:47;;;;;;;1.45;0.47;;;18.00;99.90;;;;;;4984029;28;20052;-70
2022/05/16 06:26:18;;;;;;;0.35;0.30;;;18.10;99.90;;;;;;4985388;28;20018;-70
2022/05/16 06:28:45;;;;;;;0.77;0.40;;;18.00;99.90;;;;;;4984489;28;20043;-70
2022/05/16 06:31:12;;;;;;;1.77;0.63;;;18.00;99.90;;;;;;4983258;28;20506;-71
2022/05/16 06:33:40;;;;;;;0.85;0.40;;;18.00;99.90;;;;;;4984950;28;20022;-70
2022/05/16 06:36:07;;;;;;;2.15;0.63;;;17.90;99.90;;;;;;4992951;28;20026;-71
2022/05/16 06:38:35;;;;;;;0.68;0.50;;;17.90;99.90;;;;;;4994623;28;20479;-71
2022/05/16 06:41:03;;;;;;;0.65;0.65;;;17.90;99.90;;;;;;4994565;28;20542;-71
2022/05/16 06:43:31;;;;;;;0.30;0.30;;;17.80;99.90;;;;;;4994157;28;20034;-71
2022/05/16 06:45:59;;;;;;;1.67;0.57;;;17.80;99.90;;;;;;4994471;28;20065;-70
2022/05/16 06:48:27;;;;;;;0.60;0.30;;;17.70;99.90;;;;;;4994090;28;20491;-71
2022/05/16 06:50:55;;;;;;;1.80;0.85;;;17.70;99.90;;;;;;4994105;28;20050;-70
2022/05/16 06:53:26;;;;;;;0.50;0.45;;;17.70;99.90;;;;;;4993083;28;20667;-70
2022/05/16 06:55:55;;;;;;;1.73;0.63;;;17.70;99.90;;;;;;4991840;28;20101;-71
2022/05/16 06:58:22;;;;;;;1.58;0.52;;;17.60;99.90;;;;;;4991955;28;20054;-71
2022/05/16 07:00:50;;;;;;;1.00;0.40;;;17.60;99.90;;;;;;4992081;28;20026;-71
2022/05/16 07:03:18;;;;;;;0.50;0.40;;;17.60;99.90;;;;;;4992655;28;20033;-70
2022/05/16 07:05:49;;;;;;;0.80;0.43;;;17.60;99.90;;;;;;4992951;28;20018;-71
2022/05/16 07:08:19;;;;;;;1.02;0.57;;;17.50;99.90;;;;;;4993001;28;20030;-70
2022/05/16 07:10:48;;;;;;;0.88;0.60;;;17.40;99.90;;;;;;4993851;28;20027;-70
2022/05/16 07:13:16;;;;;;;1.77;0.63;;;17.40;99.90;;;;;;4994013;28;20025;-71
2022/05/16 07:15:44;;;;;;;0.73;0.50;;;17.30;99.90;;;;;;4993957;28;20487;-70
2022/05/16 07:18:11;;;;;;;0.57;0.40;;;17.30;99.90;;;;;;4990764;28;20491;-70
2022/05/16 07:20:40;;;;;;;0.77;0.50;;;17.30;99.90;;;;;;4985296;28;20033;-70
2022/05/16 07:23:08;;;;;;;0.40;0.40;;;17.30;99.90;;;;;;4984633;28;20045;-69
2022/05/16 07:28:21;;;;;;;1.20;0.60;;;17.20;99.90;;;;;;4984480;28;20121;-70
2022/05/16 07:30:50;;;;;;;1.85;0.45;;;17.10;99.90;;;;;;5013100;28;20061;-70
2022/05/16 07:33:18;;;;;;;0.90;0.60;;;17.10;99.90;;;;;;5013297;28;20030;-72
2022/05/16 07:35:50;;;;;;;6.65;0.90;;;17.10;99.90;;;;;;4973528;28;20018;-71
2022/05/16 07:38:19;;;;;;;1.65;0.73;;;17.00;99.90;;;;;;4991587;28;20027;-71
2022/05/16 07:40:46;;;;;;;3.50;0.70;;;17.00;99.90;;;;;;4994426;28;20065;-70
2022/05/16 07:43:14;;;;;;;0.98;0.50;;;17.00;99.90;;;;;;4990543;28;20058;-72
2022/05/16 07:45:42;;;;;;;1.02;0.50;;;17.00;99.90;;;;;;4995370;28;20031;-73
2022/05/16 07:48:09;;;;;;;0.82;0.52;;;17.00;99.90;;;;;;4995664;28;20055;-74
2022/05/16 07:50:38;;;;;;;0.70;0.57;;;17.00;99.90;;;;;;4992664;28;20155;-73
2022/05/16 07:53:13;;;;;;;6.32;0.90;;;17.00;99.90;;;;;;4976909;28;20106;-72
2022/05/16 07:55:42;;;;;;;2.15;0.45;;;16.90;99.90;;;;;;4976529;28;20026;-74
2022/05/16 07:58:11;;;;;;;1.88;0.73;;;16.90;99.90;;;;;;4976972;28;20030;-74
2022/05/16 08:00:39;;;;;;;3.15;0.60;;;16.90;99.90;;;;;;4977106;28;20051;-74
2022/05/16 08:03:11;;;;;;;0.60;0.40;;;16.80;99.90;;;;;;4976599;28;20113;-74
2022/05/16 08:05:38;;;;;;;0.82;0.50;;;16.80;99.90;;;;;;4976113;28;20031;-72
2022/05/16 08:10:53;;;;;;;1.00;0.70;;;16.80;99.90;;;;;;4976710;28;20117;-74
2022/05/16 08:13:20;;;;;;;0.60;0.50;;;16.80;99.90;;;;;;4976101;28;20454;-74
2022/05/16 08:15:47;;;;;;;2.75;0.60;;;16.70;99.90;;;;;;4975862;28;20035;-73
2022/05/16 08:18:15;;;;;;;3.45;0.88;;;16.70;99.90;;;;;;4975715;28;20018;-74
2022/05/16 08:20:45;;;;;;;2.70;1.20;;;16.70;99.90;;;;;;4976666;28;20049;-73
2022/05/16 08:23:15;;;;;;;3.85;1.70;;;16.70;99.90;;;;;;4976169;28;20054;-74
2022/05/16 08:25:45;;;;;;;3.17;1.50;;;16.60;99.90;;;;;;4976632;28;20031;-74
2022/05/16 08:28:15;;;;;;;3.33;1.15;;;16.60;99.90;;;;;;4976516;28;20037;-74
2022/05/16 08:30:43;;;;;;;4.50;1.02;;;16.50;99.90;;;;;;4976568;28;20407;-74
2022/05/16 08:33:10;;;;;;;2.88;1.10;;;16.40;99.90;;;;;;4974783;28;20387;-74
2022/05/16 08:35:38;;;;;;;2.40;0.95;;;16.40;99.90;;;;;;4976534;28;20034;-74
2022/05/16 08:40:57;;;;;;;5.55;1.20;;;16.30;99.90;;;;;;4976263;28;20110;-73
2022/05/16 08:43:40;;;;;;;1.42;0.95;;;16.20;99.90;;;;;;4976214;28;20440;-74
2022/05/16 08:46:40;;;;;;;3.13;0.65;;;16.20;99.90;;;;;;4976054;28;20034;-74
2022/05/16 08:49:39;;;;;;;0.80;0.70;;;16.20;99.90;;;;;;4976118;28;20062;-74
2022/05/16 08:52:12;;;;;;;4.32;0.95;;;16.10;99.90;;;;;;4971162;28;20038;-76
2022/05/16 08:55:05;;;;;;;4.32;0.60;;;16.10;99.90;;;;;;4976304;28;20420;-74
2022/05/16 08:57:40;;;;;;;2.85;1.38;;;16.10;99.90;;;;;;4975640;28;20022;-74
2022/05/16 09:00:19;;;;;;;4.72;0.73;;;16.10;99.90;;;;;;4975343;28;20391;-74
2022/05/16 09:02:48;;;;;;;5.43;1.10;;;16.10;99.90;;;;;;4974431;28;20033;-73
2022/05/16 09:05:26;;;;;;;0.70;0.40;;;16.10;99.90;;;;;;4974293;28;20439;-74
2022/05/16 09:07:55;;;;;;;1.45;0.68;;;16.10;99.90;;;;;;4974042;28;20038;-74
2022/05/16 09:10:46;;;;;;;3.17;0.68;;;16.10;99.90;;;;;;4975265;28;20034;-73
2022/05/16 09:13:25;;;;;;;2.58;1.05;;;16.10;99.90;;;;;;4974872;28;20101;-74
2022/05/16 09:15:55;;;;;;;5.65;0.65;;;16.10;99.90;;;;;;4975091;28;20429;-74
2022/05/16 09:18:41;;;;;;;2.83;0.75;;;16.10;99.90;;;;;;4974910;28;20029;-74
2022/05/16 09:21:14;;;;;;;4.40;1.17;;;16.10;99.90;;;;;;4974412;28;20391;-74
2022/05/16 09:23:48;;;;;;;1.88;0.80;;;16.00;99.90;;;;;;4973782;28;20019;-74
2022/05/16 09:26:50;;;;;;;3.53;0.70;;;16.00;99.90;;;;;;4977475;28;20039;-74
2022/05/16 09:29:18;;;;;;;2.47;0.60;;;16.00;99.90;;;;;;4980319;28;20034;-74
2022/05/16 09:31:48;;;;;;;1.52;0.73;;;15.90;99.90;;;;;;4980436;28;20046;-75
2022/05/16 09:34:17;;;;;;;2.25;0.80;;;15.90;99.90;;;;;;4980387;28;20023;-75
2022/05/16 09:36:48;;;;;;;1.95;0.52;;;15.90;99.90;;;;;;4979725;28;20061;-75
2022/05/16 09:39:25;;;;;;;2.35;0.77;;;15.90;99.90;;;;;;4981437;28;20125;-76
2022/05/16 09:41:59;;;;;;;3.03;0.60;;;15.80;99.90;;;;;;4980438;28;20422;-75
2022/05/16 09:44:29;;;;;;;0.88;0.45;;;15.80;99.90;;;;;;4981626;28;20054;-75
2022/05/16 09:47:29;;;;;;;1.73;0.75;;;15.70;99.90;;;;;;4983218;28;20019;-75
2022/05/16 09:50:20;;;;;;;3.58;0.80;;;15.70;99.90;;;;;;4955184;28;20039;-75
2022/05/16 09:53:09;;;;;;;4.90;0.90;;;15.70;99.90;;;;;;4981807;28;20038;-74
2022/05/16 09:55:45;;;;;;;2.15;1.00;;;15.70;99.90;;;;;;4982414;28;20015;-76
2022/05/16 09:58:34;;;;;;;2.05;0.70;;;15.60;99.90;;;;;;4983335;28;20031;-76
2022/05/16 10:01:07;;;;;;;2.10;0.82;;;15.60;99.90;;;;;;4984104;28;20030;-76
2022/05/16 10:03:48;;;;;;;1.25;0.60;;;15.60;99.90;;;;;;4980025;28;20054;-77
2022/05/16 10:06:36;;;;;;;1.58;0.80;;;15.60;99.90;;;;;;4974652;28;20023;-76
2022/05/16 10:09:10;;;;;;;2.60;0.60;;;15.50;99.90;;;;;;4981227;28;20035;-77
2022/05/16 10:11:39;;;;;;;2.60;0.52;;;15.50;99.90;;;;;;4973815;28;20379;-76
2022/05/16 10:14:07;;;;;;;2.83;0.65;;;15.50;99.90;;;;;;4978661;28;20042;-76
2022/05/16 10:16:37;;;;;;;2.08;0.57;;;15.40;99.90;;;;;;4974472;28;20031;-74
2022/05/16 10:19:15;;;;;;;2.22;0.88;;;15.50;99.90;;;;;;4974999;28;20019;-76
2022/05/16 10:22:01;;;;;;;3.50;0.70;;;15.50;99.90;;;;;;4979009;28;20033;-76
2022/05/16 10:24:38;;;;;;;2.78;0.77;;;15.50;99.90;;;;;;4973635;28;20034;-76
2022/05/16 10:27:11;;;;;;;3.65;0.70;;;15.50;99.90;;;;;;4985803;28;20022;-75
2022/05/16 10:29:49;;;;;;;4.03;0.93;;;15.50;99.90;;;;;;4993567;28;20061;-76
2022/05/16 10:35:14;;;;;;;4.50;0.68;;;15.50;99.90;;;;;;4991368;28;20041;-75
2022/05/16 10:37:45;;;;;;;1.45;0.60;;;15.50;99.90;;;;;;4993107;28;20073;-75
2022/05/16 10:40:32;;;;;;;1.48;0.50;;;15.40;99.90;;;;;;4993459;28;20199;-76
2022/05/16 10:43:19;;;;;;;1.27;0.45;;;15.40;99.90;;;;;;4993181;28;20462;-77
2022/05/16 10:45:53;;;;;;;2.13;0.52;;;15.40;99.90;;;;;;4990889;28;20019;-76
2022/05/16 10:48:41;;;;;;;4.35;1.40;;;15.40;99.90;;;;;;4984181;28;20065;-73
2022/05/16 10:51:21;;;;;;;2.55;0.82;;;15.40;99.90;;;;;;4979328;28;20491;-70
2022/05/16 10:54:12;;;;;;;3.50;0.60;;;15.30;99.90;;;;;;4984347;28;20027;-73
2022/05/16 10:56:58;;;;;;;1.13;0.40;;;15.30;99.90;;;;;;4985194;28;20506;-72
2022/05/16 10:59:47;;;;;;;2.05;0.40;;;15.20;99.90;;;;;;4973529;28;20391;-74
2022/05/16 11:02:49;;;;;;;2.05;0.77;;;15.20;99.90;;;;;;4991639;28;20364;-75
2022/05/16 11:05:39;;;;;;;1.83;0.63;;;15.20;99.90;;;;;;4990732;28;20037;-76
2022/05/16 11:08:38;;;;;;;1.00;0.55;;;15.20;99.90;;;;;;4992173;28;20029;-73
2022/05/16 11:11:19;;;;;;;2.25;0.60;;;15.20;99.90;;;;;;4989285;28;20061;-76
2022/05/16 11:13:51;;;;;;;2.55;0.60;;;15.10;99.90;;;;;;4973703;28;20034;-75
2022/05/16 11:16:27;;;;;;;3.92;0.65;;;15.10;99.90;;;;;;4973977;28;20072;-73
2022/05/16 11:19:04;;;;;;;;;;;15.10;99.90;;;;;;4973389;28;20034;-76
2022/05/16 11:21:57;;;;;;;3.95;0.68;;;15.00;99.90;;;;;;4980431;28;19914;-76
2022/05/16 11:24:57;;;;;;;2.72;0.77;;;15.00;99.90;;;;;;4959524;28;20038;-76
2022/05/16 11:27:46;;;;;;;2.75;0.50;;;15.00;99.90;;;;;;4951560;28;20078;-77
2022/05/16 11:30:20;;;;;;;2.63;0.85;;;15.00;99.90;;;;;;4974622;28;20038;-74
2022/05/16 11:33:07;;;;;;;3.13;0.98;;;15.00;99.90;;;;;;4973999;28;20035;-73
2022/05/16 11:35:41;;;;;;;1.33;0.68;;;14.90;99.90;;;;;;4974340;28;20030;-70
2022/05/16 11:38:43;;;;;;;4.93;0.80;;;15.00;99.90;;;;;;4989204;28;20031;-77
2022/05/16 11:41:11;;;;;;;2.97;1.02;;;14.90;99.90;;;;;;4973846;28;20034;-73
2022/05/16 11:43:47;;;;;;;4.10;0.50;;;14.90;99.90;;;;;;4989184;28;20386;-74
2022/05/16 11:46:43;;;;;;;2.58;0.63;;;14.90;99.90;;;;;;4985228;28;20049;-75
2022/05/16 11:49:27;;;;;;;4.40;0.80;;;14.90;99.90;;;;;;4981076;28;20045;-73
2022/05/16 11:52:20;;;;;;;1.48;0.55;;;14.90;99.90;;;;;;4974497;28;20138;-74
2022/05/16 12:01:30;;;;;;;4.68;0.50;;;14.80;99.90;;;;;;4989566;28;20038;-74
2022/05/16 12:04:16;;;;;;;2.47;0.60;;;14.90;99.90;;;;;;4991090;28;20018;-74
2022/05/16 12:06:58;;;;;;;2.70;0.70;;;14.80;99.90;;;;;;4991985;28;20108;-74
2022/05/16 12:09:33;;;;;;;2.58;0.88;;;14.80;99.90;;;;;;4990894;28;21624;-75
2022/05/16 12:12:12;;;;;;;2.37;0.50;;;14.80;99.90;;;;;;4989094;28;20026;-75
2022/05/16 12:14:42;;;;;;;1.55;0.60;;;14.80;99.90;;;;;;4993086;28;20664;-75
2022/05/16 12:17:18;;;;;;;4.72;0.45;;;14.80;99.90;;;;;;4989603;28;20018;-75
2022/05/16 12:19:53;;;;;;;2.85;0.52;;;14.80;99.90;;;;;;4990068;28;20037;-75
2022/05/16 12:22:32;;;;;;;1.60;0.60;;;14.70;99.90;;;;;;4991011;28;20027;-74
2022/05/16 12:25:11;;;;;;;3.70;0.82;;;14.70;99.90;;;;;;4991012;28;20035;-75
2022/05/16 12:27:46;;;;;;;9.95;1.02;;;14.60;99.90;;;;;;4992807;28;20045;-74
2022/05/16 12:30:16;;;;;;;2.00;0.85;;;14.60;99.90;;;;;;4996252;28;20479;-75
2022/05/16 12:32:51;;;;;;;2.28;0.40;;;14.60;99.90;;;;;;4996360;28;20482;-75
2022/05/16 12:35:35;;;;;;;2.53;1.10;;;14.50;99.90;;;;;;4981922;28;20023;-75
2022/05/16 12:38:04;;;;;;;5.57;1.00;;;14.50;99.90;;;;;;4989448;28;20031;-75
2022/05/16 12:40:53;;;;;;;2.33;0.80;;;14.50;99.90;;;;;;4996636;28;20502;-74
2022/05/16 12:44:00;;;;;;;1.75;0.60;;;14.50;99.90;;;;;;4996457;28;20030;-76
2022/05/16 12:47:04;;;;;;;1.90;0.60;;;14.50;99.90;;;;;;4997143;28;20475;-76
2022/05/16 12:49:35;;;;;;;2.05;0.50;;;14.40;99.90;;;;;;4992919;28;20405;-76
2022/05/16 12:52:39;;;;;;;1.83;0.70;;;14.40;99.90;;;;;;4996616;28;20026;-76
2022/05/16 12:55:34;;;;;;;3.38;0.70;;;14.40;99.90;;;;;;4996436;28;20024;-75
2022/05/16 12:58:22;;;;;;;1.10;0.60;;;14.40;99.90;;;;;;4996319;28;20026;-75
2022/05/16 13:01:10;;;;;;;1.60;0.50;;;14.30;99.90;;;;;;4995120;28;20019;-76
2022/05/16 13:03:47;;;;;;;1.70;0.73;;;14.30;99.90;;;;;;4996463;28;20444;-75
2022/05/16 13:06:36;;;;;;;2.55;0.68;;;14.30;99.90;;;;;;4996260;28;20026;-75
2022/05/16 13:09:13;;;;;;;1.08;0.60;;;14.30;99.90;;;;;;4996272;28;20031;-76
2022/05/16 13:12:03;;;;;;;1.98;0.55;;;14.30;99.90;;;;;;4996352;28;20029;-76
2022/05/16 13:14:43;;;;;;;2.08;0.90;;;14.20;99.90;;;;;;4996324;28;20022;-76
2022/05/16 13:17:29;;;;;;;1.63;0.60;;;14.20;99.90;;;;;;4996179;28;20077;-75
2022/05/16 13:19:56;;;;;;;0.80;0.52;;;14.10;99.90;;;;;;4996393;28;20032;-75
2022/05/16 13:22:24;;;;;;;1.00;0.73;;;14.20;99.90;;;;;;4995845;28;20034;-75
2022/05/16 13:24:57;;;;;;;1.75;0.60;;;14.10;99.90;;;;;;4995976;28;20379;-75
2022/05/16 13:30:17;;;;;;;3.90;0.68;;;14.10;99.90;;;;;;4996006;28;20510;-75
2022/05/16 13:32:45;;;;;;;2.00;0.50;;;14.10;99.90;;;;;;4996097;28;20045;-75
2022/05/16 13:35:37;;;;;;;2.20;0.60;;;14.10;99.90;;;;;;4995741;28;20049;-76
2022/05/16 13:38:07;;;;;;;1.27;0.80;;;14.00;99.90;;;;;;4994994;28;20348;-75
2022/05/16 13:40:41;;;;;;;2.67;0.73;;;14.00;99.90;;;;;;4995308;28;20030;-76
2022/05/16 13:43:14;;;;;;;2.42;0.73;;;14.00;99.90;;;;;;4995693;28;20029;-75
2022/05/16 13:45:43;;;;;;;2.38;0.95;;;14.00;99.90;;;;;;4995642;28;20029;-74
2022/05/16 13:48:14;;;;;;;3.40;0.73;;;14.00;99.90;;;;;;4995822;28;20027;-75
2022/05/16 13:50:44;;;;;;;1.85;0.50;;;14.00;99.90;;;;;;4995065;28;20061;-75